createdAt,value
2019-02-17T11:40:47.015Z,9.23
2019-02-17T11:50:52.832Z,9.90
2019-02-17T12:00:59.053Z,9.05
2019-02-17T12:11:05.251Z,9.50
2019-02-17T12:21:12.684Z,10.15
2019-02-17T12:41:25.125Z,9.48
2019-02-17T12:51:30.975Z,9.70
2019-02-17T13:01:37.096Z,9.63
2019-02-17T13:11:43.174Z,10.05
2019-02-17T13:21:49.415Z,10.43
2019-02-17T13:31:55.334Z,31.00
2019-02-17T13:42:01.167Z,64.37
2019-02-17T13:52:06.995Z,44.83
2019-02-17T14:02:12.831Z,33.60
2019-02-17T14:12:18.724Z,27.07
2019-02-17T14:22:24.639Z,23.98
2019-02-17T14:32:30.526Z,20.55
2019-02-17T14:42:36.402Z,18.42
2019-02-17T14:52:42.239Z,15.70
2019-02-17T15:02:48.088Z,14.20
2019-02-17T15:12:53.944Z,12.15
2019-02-17T15:22:59.870Z,11.60
2019-02-17T15:53:15.854Z,11.03
2019-02-17T16:03:21.766Z,10.48
2019-02-17T16:13:27.665Z,10.32
2019-02-17T16:23:33.459Z,9.88
2019-02-17T16:33:39.213Z,9.25
2019-02-17T16:43:45.063Z,9.08
2019-02-17T16:53:50.844Z,9.30
2019-02-17T17:03:56.728Z,10.03
2019-02-17T17:14:08.788Z,11.28
2019-02-17T17:24:11.078Z,12.13
2019-02-17T17:34:16.975Z,12.23
2019-02-17T17:44:22.928Z,13.35
2019-02-17T17:54:28.934Z,16.05
2019-02-17T18:14:39.656Z,16.62
2019-02-17T18:24:45.522Z,17.23
2019-02-17T18:34:51.356Z,16.15
2019-02-17T18:44:57.188Z,25.75
2019-02-17T18:55:03.192Z,22.60
2019-02-17T19:05:11.821Z,22.00
2019-02-17T19:15:22.967Z,21.00
2019-02-17T19:25:28.892Z,20.70
2019-02-17T19:35:41.537Z,20.00
2019-02-17T19:45:42.508Z,24.05
2019-02-17T19:55:48.395Z,29.15
2019-02-17T20:06:02.494Z,28.62
2019-02-17T20:16:08.428Z,29.42
2019-02-17T20:26:14.398Z,27.50
2019-02-17T20:36:20.237Z,26.62
2019-02-17T20:46:26.054Z,27.58
